SWA2140 KOAK-KLAS
Flight info
| Callsign | SWA2140 |
|---|---|
| Flight time | N/A |
| Altitude | 31000 |
| Route | CNDEL5 NTELL Q174 FLCHR COKTL4 |
| Aircraft | B738/M-SDE2E3FGHIRWXY/LB1 |
Departure
| Time | 2026-05-01 15:02 |
|---|---|
| Airport | San Francisco Bay Oakland International Airport (KOAK) |
Arrival
| Time | N/A |
|---|---|
| Airport | Harry Reid International Airport (KLAS) |
| Time | Latitude | Longitude | Altitude | Speed | Heading |
|---|---|---|---|---|---|
| 2026-05-01 14:37 | 37.70983 | -122.21276 | 8 ft | 0 kts | 126° |
| 2026-05-01 14:53 | 37.70983 | -122.21277 | 8 ft | 1 kts | 126° |
| 2026-05-01 14:53 | 37.70996 | -122.21297 | 10 ft | 3 kts | 127° |
| 2026-05-01 14:53 | 37.71009 | -122.21320 | 9 ft | 3 kts | 131° |
| 2026-05-01 14:54 | 37.71025 | -122.21339 | 8 ft | 3 kts | 148° |
| 2026-05-01 14:54 | 37.71041 | -122.21347 | 9 ft | 3 kts | 205° |
| 2026-05-01 14:54 | 37.71045 | -122.21345 | 10 ft | 1 kts | 216° |
| 2026-05-01 14:57 | 37.71043 | -122.21347 | 8 ft | 1 kts | 216° |
| 2026-05-01 14:57 | 37.71025 | -122.21364 | 8 ft | 5 kts | 216° |
| 2026-05-01 14:58 | 37.71005 | -122.21382 | 9 ft | 6 kts | 217° |
| 2026-05-01 14:58 | 37.70962 | -122.21423 | 9 ft | 10 kts | 217° |
| 2026-05-01 14:58 | 37.70900 | -122.21481 | 9 ft | 11 kts | 217° |
| 2026-05-01 14:58 | 37.70868 | -122.21569 | 8 ft | 13 kts | 263° |
| 2026-05-01 14:59 | 37.70806 | -122.21660 | 8 ft | 15 kts | 220° |
| 2026-05-01 14:59 | 37.70723 | -122.21749 | 8 ft | 12 kts | 220° |
| 2026-05-01 14:59 | 37.70647 | -122.21777 | 8 ft | 13 kts | 163° |
| 2026-05-01 14:59 | 37.70574 | -122.21687 | 8 ft | 16 kts | 130° |
| 2026-05-01 15:00 | 37.70405 | -122.21435 | 8 ft | 17 kts | 131° |
| 2026-05-01 15:00 | 37.70304 | -122.21372 | 10 ft | 16 kts | 160° |
| 2026-05-01 15:00 | 37.70213 | -122.21373 | 8 ft | 8 kts | 214° |
| 2026-05-01 15:01 | 37.70170 | -122.21421 | 9 ft | 8 kts | 234° |
| 2026-05-01 15:01 | 37.70175 | -122.21464 | 10 ft | 0 kts | 308° |
| 2026-05-01 15:01 | 37.70191 | -122.21491 | 8 ft | 15 kts | 309° |
| 2026-05-01 15:02 | 37.70415 | -122.21828 | 9 ft | 85 kts | 310° |
| 2026-05-01 15:02 | 37.70730 | -122.22300 | 8 ft | 125 kts | 309° |
| 2026-05-01 15:02 | 37.71681 | -122.23690 | 148 ft | 179 kts | 308° |
| 2026-05-01 15:02 | 37.72486 | -122.24906 | 896 ft | 182 kts | 307° |
| 2026-05-01 15:03 | 37.73270 | -122.26131 | 1630 ft | 174 kts | 306° |
| 2026-05-01 15:03 | 37.74072 | -122.27401 | 1865 ft | 199 kts | 306° |
| 2026-05-01 15:03 | 37.75003 | -122.28807 | 2010 ft | 220 kts | 308° |
| 2026-05-01 15:03 | 37.76046 | -122.30332 | 2013 ft | 241 kts | 310° |
| 2026-05-01 15:04 | 37.77161 | -122.31969 | 2293 ft | 252 kts | 309° |
| 2026-05-01 15:04 | 37.78321 | -122.33683 | 2895 ft | 257 kts | 309° |
| 2026-05-01 15:04 | 37.79176 | -122.35676 | 3488 ft | 263 kts | 281° |
| 2026-05-01 15:04 | 37.79088 | -122.37987 | 4096 ft | 267 kts | 251° |
| 2026-05-01 15:05 | 37.78149 | -122.39964 | 4779 ft | 268 kts | 223° |
| 2026-05-01 15:05 | 37.76575 | -122.41214 | 5442 ft | 269 kts | 198° |
| 2026-05-01 15:05 | 37.74749 | -122.41765 | 6135 ft | 271 kts | 189° |
| 2026-05-01 15:05 | 37.72874 | -122.42171 | 6788 ft | 275 kts | 188° |
| 2026-05-01 15:06 | 37.70971 | -122.42565 | 7454 ft | 278 kts | 188° |
| 2026-05-01 15:06 | 37.69066 | -122.42966 | 8157 ft | 282 kts | 189° |
| 2026-05-01 15:06 | 37.67117 | -122.43387 | 8835 ft | 286 kts | 189° |
| 2026-05-01 15:06 | 37.65143 | -122.43821 | 9525 ft | 290 kts | 189° |
| 2026-05-01 15:07 | 37.63131 | -122.44270 | 10220 ft | 296 kts | 190° |
| 2026-05-01 15:07 | 37.61035 | -122.44740 | 10459 ft | 318 kts | 191° |
| 2026-05-01 15:07 | 37.58777 | -122.45249 | 10644 ft | 339 kts | 191° |
| 2026-05-01 15:07 | 37.56392 | -122.45788 | 10956 ft | 355 kts | 191° |
| 2026-05-01 15:08 | 37.53938 | -122.46341 | 11578 ft | 359 kts | 191° |
| 2026-05-01 15:08 | 37.51478 | -122.46686 | 12240 ft | 364 kts | 177° |
| 2026-05-01 15:08 | 37.49019 | -122.45878 | 12894 ft | 370 kts | 153° |
| 2026-05-01 15:08 | 37.46926 | -122.43960 | 13563 ft | 375 kts | 133° |
| 2026-05-01 15:09 | 37.45338 | -122.41340 | 14188 ft | 380 kts | 125° |
| 2026-05-01 15:09 | 37.43819 | -122.38598 | 14825 ft | 383 kts | 125° |
| 2026-05-01 15:09 | 37.42270 | -122.35842 | 15499 ft | 386 kts | 125° |
| 2026-05-01 15:09 | 37.40907 | -122.32971 | 16164 ft | 389 kts | 110° |
| 2026-05-01 15:10 | 37.40213 | -122.29686 | 16876 ft | 389 kts | 102° |
| 2026-05-01 15:10 | 37.38955 | -122.22966 | 18174 ft | 397 kts | 103° |
| 2026-05-01 15:10 | 37.38302 | -122.19573 | 18742 ft | 401 kts | 103° |
| 2026-05-01 15:11 | 37.37639 | -122.16180 | 19118 ft | 407 kts | 103° |
| 2026-05-01 15:11 | 37.36260 | -122.09212 | 20277 ft | 412 kts | 103° |
| 2026-05-01 15:11 | 37.35558 | -122.05696 | 20805 ft | 416 kts | 103° |
| 2026-05-01 15:12 | 37.34848 | -122.02149 | 21282 ft | 421 kts | 103° |
| 2026-05-01 15:12 | 37.33406 | -121.94963 | 22287 ft | 429 kts | 104° |
| 2026-05-01 15:12 | 37.32670 | -121.91306 | 22787 ft | 433 kts | 104° |
| 2026-05-01 15:13 | 37.30424 | -121.80177 | 24114 ft | 444 kts | 104° |
| 2026-05-01 15:14 | 37.28882 | -121.72569 | 24877 ft | 452 kts | 104° |
| 2026-05-01 15:14 | 37.28111 | -121.68776 | 25265 ft | 456 kts | 104° |
| 2026-05-01 15:14 | 37.26525 | -121.60992 | 25979 ft | 462 kts | 104° |
| 2026-05-01 15:15 | 37.24911 | -121.53102 | 26656 ft | 470 kts | 104° |
| 2026-05-01 15:15 | 37.23267 | -121.45092 | 27305 ft | 477 kts | 104° |
| 2026-05-01 15:16 | 37.21603 | -121.37017 | 28002 ft | 482 kts | 104° |
| 2026-05-01 15:16 | 37.19906 | -121.28814 | 28659 ft | 488 kts | 104° |
| 2026-05-01 15:17 | 37.18192 | -121.20556 | 29297 ft | 494 kts | 104° |
| 2026-05-01 15:18 | 37.15585 | -121.08065 | 30525 ft | 493 kts | 104° |
| 2026-05-01 15:18 | 37.14715 | -121.03907 | 30851 ft | 493 kts | 104° |
| 2026-05-01 15:19 | 37.12073 | -120.91339 | 31009 ft | 497 kts | 104° |
| 2026-05-01 15:19 | 37.09449 | -120.78928 | 31018 ft | 492 kts | 104° |
| 2026-05-01 15:20 | 37.06808 | -120.66502 | 31006 ft | 494 kts | 104° |
| 2026-05-01 15:21 | 37.05024 | -120.58153 | 31006 ft | 495 kts | 104° |
| 2026-05-01 15:21 | 37.03243 | -120.49845 | 31015 ft | 496 kts | 104° |
| 2026-05-01 15:22 | 37.00547 | -120.37327 | 31020 ft | 496 kts | 104° |
| 2026-05-01 15:22 | 36.98742 | -120.28985 | 31020 ft | 495 kts | 104° |
| 2026-05-01 15:23 | 36.96948 | -120.20721 | 31024 ft | 495 kts | 104° |
| 2026-05-01 15:23 | 36.95135 | -120.12404 | 31024 ft | 494 kts | 104° |
| 2026-05-01 15:24 | 36.93329 | -120.04145 | 31034 ft | 495 kts | 104° |
| 2026-05-01 15:24 | 36.91508 | -119.95845 | 31024 ft | 495 kts | 104° |
| 2026-05-01 15:25 | 36.90754 | -119.87432 | 31035 ft | 485 kts | 78° |
| 2026-05-01 15:25 | 36.91652 | -119.83392 | 31026 ft | 478 kts | 64° |
| 2026-05-01 15:25 | 36.92921 | -119.79547 | 31031 ft | 478 kts | 62° |
| 2026-05-01 15:26 | 36.95520 | -119.71936 | 31026 ft | 479 kts | 62° |
| 2026-05-01 15:26 | 36.98103 | -119.64229 | 31015 ft | 481 kts | 63° |
| 2026-05-01 15:27 | 37.00641 | -119.56477 | 31015 ft | 481 kts | 63° |
| 2026-05-01 15:28 | 37.04413 | -119.44834 | 31006 ft | 482 kts | 63° |
| 2026-05-01 15:28 | 37.06927 | -119.37050 | 30996 ft | 481 kts | 63° |
| 2026-05-01 15:29 | 37.10260 | -119.26712 | 31001 ft | 480 kts | 63° |
| 2026-05-01 15:30 | 37.15222 | -119.11252 | 31043 ft | 478 kts | 63° |
| 2026-05-01 15:31 | 37.22598 | -118.88116 | 31077 ft | 476 kts | 63° |
| 2026-05-01 15:32 | 37.27410 | -118.72613 | 31089 ft | 479 kts | 69° |
| 2026-05-01 15:33 | 37.28731 | -118.60061 | 31120 ft | 487 kts | 80° |
| 2026-05-01 15:34 | 37.29589 | -118.47362 | 31147 ft | 487 kts | 80° |